CheckWX is a tool to help pilots better visualize weather data.  It is not intended as a substitute for an official pre-flight weather briefing.

10:30:09 UTC

PASC TAF
Deadhorse Airport
Deadhorse, Alaska, USA
TAF COR PASC 260835Z 2609/2706 VRB06KT 1/4SM FG OVC002 FM261500 VRB06KT 2SM BR BKN004 FM261800 09010KT 4SM BR BKN010 FM262100 09010KT P6SM VCFG SCT010

Jun-26@
09:00 UTC

Jun-26 @ 09:00 UTC

Jun-26@
15:00 UTC

Jun-26 @ 15:00 UTC

TAF COR PASC 260835Z 2609/2706 VRB06KT 1/4SM FG OVC002
Wind
  • Variable at 6 KTS
Conditions
Fog
Cloud Levels
  • Overcast at 200' AGL

Jun-26@
15:00 UTC

Jun-26 @ 15:00 UTC

Jun-26@
18:00 UTC

Jun-26 @ 18:00 UTC

FM261500 VRB06KT 2SM BR BKN004

From

From Standard forecast or significant change

Wind
  • Variable at 6 KTS
Conditions
Mist
Cloud Levels
  • Broken at 400' AGL

Jun-26@
18:00 UTC

Jun-26 @ 18:00 UTC

Jun-26@
21:00 UTC

Jun-26 @ 21:00 UTC

FM261800 09010KT 4SM BR BKN010

From

From Standard forecast or significant change

Wind
  • 090° at 10 KTS
Conditions
Mist
Cloud Levels
  • Broken at 1,000' AGL

Jun-26@
21:00 UTC

Jun-26 @ 21:00 UTC

Jun-27@
06:00 UTC

Jun-27 @ 06:00 UTC

FM262100 09010KT P6SM VCFG SCT010

From

From Standard forecast or significant change

Wind
  • 090° at 10 KTS
Conditions
Area Fog
Cloud Levels
  • Scattered at 1,000' AGL